Archbald, Pennsylvania
Current Conditions -  °F | °C
As of 6:13 AM on Saturday 01 Nov 2014 (Local Time) from KAVP Reporting Station
Overcast Overcast  
Wind Chill: 42°   Ceiling: 3000
Heat Index: 46°   Visibility: 10mi
Dew Point: 36°   Wind: 8mph
Humidity: 68%   Direction: 50°NE
Pressure: 29.85"   Gusts: NA
Location:  41.51°N, 75.56°W
Report Text: KAVP 011013Z AUTO 05007KT 10SM SCT023 OVC030 08/02 A2985 RMK AO2 T00780022
Loading
Personal Weather Stations






























Interactive Weather Map
Tropical Storm Tracking
New forecast layout! Learn more

10-Day Weather Forecast

Advertisements
Track Severe Weather on mobile